createdAt,value
2018-12-10T00:00:07.200Z,92.64
2018-12-10T00:02:37.182Z,92.97
2018-12-10T00:05:08.040Z,92.29
2018-12-10T00:07:39.005Z,91.93
2018-12-10T00:10:08.125Z,92.57
2018-12-10T00:12:37.120Z,92.69
2018-12-10T00:15:06.088Z,92.75
2018-12-10T00:17:35.020Z,92.94
2018-12-10T00:20:03.936Z,91.65
2018-12-10T00:22:32.811Z,92.31
2018-12-10T00:25:01.726Z,92.44
2018-12-10T00:27:30.617Z,92.65
2018-12-10T00:29:59.672Z,92.79
2018-12-10T00:32:29.550Z,92.63
2018-12-10T00:34:58.565Z,93.17
2018-12-10T00:37:27.517Z,92.99
2018-12-10T00:39:56.407Z,92.43
2018-12-10T00:42:25.677Z,92.55
2018-12-10T00:44:54.689Z,91.66
2018-12-10T00:47:23.690Z,91.45
2018-12-10T00:49:52.563Z,92.24
2018-12-10T00:52:21.570Z,91.90
2018-12-10T00:54:50.446Z,91.09
2018-12-10T00:57:19.346Z,93.16
2018-12-10T00:59:48.255Z,93.23
2018-12-10T01:02:17.231Z,93.21
2018-12-10T01:04:46.237Z,93.59
2018-12-10T01:07:15.200Z,94.07
2018-12-10T01:09:44.204Z,94.73
2018-12-10T01:12:13.061Z,94.39
2018-12-10T01:14:42.035Z,94.77
2018-12-10T01:17:10.977Z,95.53
2018-12-10T01:19:39.911Z,94.88
2018-12-10T01:22:08.845Z,94.21
2018-12-10T01:24:37.745Z,93.91
2018-12-10T01:27:06.665Z,94.09
2018-12-10T01:29:35.549Z,93.92
2018-12-10T01:32:04.612Z,93.53
2018-12-10T01:34:33.514Z,93.66
2018-12-10T01:37:02.506Z,93.10
2018-12-10T01:39:31.419Z,94.44
2018-12-10T01:42:00.471Z,94.04
2018-12-10T01:44:29.376Z,93.79
2018-12-10T01:46:58.297Z,92.28
2018-12-10T01:49:27.310Z,92.31
2018-12-10T01:51:56.203Z,92.91
2018-12-10T01:54:25.120Z,92.20
2018-12-10T01:56:54.011Z,91.28
2018-12-10T01:59:22.950Z,91.00
2018-12-10T02:01:51.863Z,90.20
2018-12-10T02:04:20.809Z,89.98
2018-12-10T02:06:49.698Z,90.07
2018-12-10T02:09:18.680Z,91.33
2018-12-10T02:11:47.602Z,92.09
2018-12-10T02:14:16.669Z,93.59
2018-12-10T02:16:45.699Z,94.36
2018-12-10T02:19:21.413Z,94.15
2018-12-10T02:21:50.336Z,94.02
2018-12-10T02:24:19.208Z,93.97
2018-12-10T02:26:48.234Z,95.28
2018-12-10T02:29:17.166Z,94.97
2018-12-10T02:31:46.239Z,95.51
2018-12-10T02:34:15.187Z,95.93
2018-12-10T02:36:44.169Z,96.10
2018-12-10T02:39:13.137Z,95.81
2018-12-10T02:41:42.091Z,95.26
2018-12-10T02:44:10.994Z,95.93
2018-12-10T02:46:39.936Z,95.89
2018-12-10T02:49:08.943Z,96.05
2018-12-10T02:51:37.901Z,95.95
2018-12-10T02:54:06.852Z,95.93
2018-12-10T02:56:35.777Z,95.98
2018-12-10T02:59:04.674Z,96.05
2018-12-10T03:01:33.634Z,96.23
2018-12-10T03:04:20.891Z,95.89
2018-12-10T03:24:53.749Z,95.30
2018-12-10T03:27:22.689Z,96.05
2018-12-10T03:29:51.597Z,96.17
2018-12-10T03:32:20.507Z,96.87
2018-12-10T03:34:50.402Z,96.63
2018-12-10T03:37:19.420Z,96.87
2018-12-10T03:39:48.373Z,96.85
2018-12-10T03:42:17.305Z,96.81
2018-12-10T03:44:46.237Z,97.04
2018-12-10T03:47:15.144Z,97.40
2018-12-10T03:49:44.100Z,97.28
2018-12-10T03:52:13.025Z,97.53
2018-12-10T03:54:41.974Z,97.01
2018-12-10T03:57:10.914Z,97.00
2018-12-10T03:59:40.057Z,97.20
2018-12-10T04:02:08.931Z,96.99
2018-12-10T04:04:37.905Z,97.13
2018-12-10T04:07:06.870Z,97.28
2018-12-10T04:09:35.845Z,97.30
2018-12-10T04:12:04.707Z,97.26
2018-12-10T04:14:33.646Z,96.43
2018-12-10T04:17:02.563Z,95.33
2018-12-10T04:19:31.536Z,95.41
2018-12-10T04:22:00.500Z,94.26
2018-12-10T04:24:29.437Z,93.18
2018-12-10T04:26:58.533Z,92.94
2018-12-10T04:29:27.553Z,93.02
2018-12-10T04:31:56.450Z,92.45
2018-12-10T04:34:25.479Z,92.23
2018-12-10T04:36:54.522Z,91.48
2018-12-10T04:39:24.030Z,91.92
2018-12-10T04:41:53.007Z,90.78
2018-12-10T04:44:21.988Z,91.42
2018-12-10T04:46:50.889Z,91.49
2018-12-10T04:49:20.038Z,90.38
2018-12-10T04:51:50.014Z,91.39
2018-12-10T04:54:19.034Z,90.97
2018-12-10T04:56:48.001Z,90.04
2018-12-10T04:59:17.038Z,88.91
2018-12-10T05:01:46.409Z,88.73
2018-12-10T05:04:15.361Z,89.30
2018-12-10T05:06:44.285Z,89.44
2018-12-10T05:09:13.194Z,89.20
2018-12-10T05:11:42.154Z,88.57
2018-12-10T05:14:11.030Z,88.70
2018-12-10T05:16:40.018Z,88.22
2018-12-10T05:19:09.587Z,88.25
2018-12-10T05:21:38.504Z,86.26
2018-12-10T05:24:07.476Z,87.54
2018-12-10T05:26:36.584Z,87.17
2018-12-10T05:29:06.162Z,87.57
2018-12-10T05:31:35.098Z,87.52
2018-12-10T05:34:04.139Z,87.99
2018-12-10T05:36:33.134Z,87.77
2018-12-10T05:39:03.986Z,87.81
2018-12-10T05:41:32.918Z,88.42
2018-12-10T05:44:01.810Z,89.58
2018-12-10T05:46:30.841Z,91.07
2018-12-10T05:48:59.794Z,91.14
2018-12-10T05:51:28.733Z,92.36
2018-12-10T05:53:57.676Z,92.09
2018-12-10T05:56:26.648Z,91.71
2018-12-10T05:58:55.597Z,91.92
2018-12-10T06:01:24.602Z,91.26
2018-12-10T06:03:54.066Z,91.92
2018-12-10T06:06:23.078Z,90.79
2018-12-10T06:08:52.042Z,90.24
2018-12-10T06:11:20.971Z,91.81
2018-12-10T06:13:49.918Z,87.35
2018-12-10T06:16:18.891Z,86.55
2018-12-10T06:18:47.811Z,86.47
2018-12-10T06:21:17.057Z,87.16
2018-12-10T06:23:45.926Z,86.99
2018-12-10T06:26:14.924Z,87.74
2018-12-10T06:28:43.891Z,87.26
2018-12-10T06:31:13.842Z,87.67
2018-12-10T06:33:42.732Z,87.70
2018-12-10T06:36:11.770Z,87.42
2018-12-10T06:38:40.668Z,87.17
2018-12-10T06:41:09.614Z,85.84
2018-12-10T06:43:38.497Z,86.74
2018-12-10T06:46:08.362Z,87.03
2018-12-10T06:48:37.306Z,87.64
2018-12-10T06:51:06.177Z,87.37
2018-12-10T06:53:35.134Z,89.28
2018-12-10T06:56:04.039Z,90.16
2018-12-10T06:58:32.958Z,90.86
2018-12-10T07:01:01.900Z,91.04
2018-12-10T07:03:30.891Z,90.65
2018-12-10T07:05:59.951Z,91.16
2018-12-10T07:08:28.992Z,91.35
2018-12-10T07:10:59.030Z,91.26
2018-12-10T07:13:27.909Z,91.61
2018-12-10T07:15:56.836Z,91.37
2018-12-10T07:18:25.893Z,91.44
2018-12-10T07:20:54.919Z,90.89
2018-12-10T07:23:23.862Z,91.35
2018-12-10T07:25:52.851Z,91.90
2018-12-10T07:28:21.867Z,91.00
2018-12-10T07:30:50.891Z,91.74
2018-12-10T07:33:19.866Z,91.02
2018-12-10T07:35:48.818Z,91.65
2018-12-10T07:38:17.849Z,91.67
2018-12-10T07:40:47.016Z,91.76
2018-12-10T07:43:15.959Z,92.13
2018-12-10T07:45:44.901Z,91.58
2018-12-10T07:48:13.805Z,91.14
2018-12-10T07:50:42.714Z,90.13
2018-12-10T07:53:11.605Z,90.47
2018-12-10T07:55:40.578Z,90.00
2018-12-10T07:58:09.550Z,89.48
2018-12-10T08:00:38.450Z,89.57
2018-12-10T08:03:07.420Z,90.34
2018-12-10T08:05:36.347Z,89.19
2018-12-10T08:08:05.223Z,88.67
2018-12-10T08:10:34.105Z,89.06
2018-12-10T08:13:03.094Z,88.31
2018-12-10T08:15:31.984Z,89.07
2018-12-10T08:18:00.970Z,88.53
2018-12-10T08:20:29.884Z,88.82
2018-12-10T08:22:58.774Z,88.12
2018-12-10T08:25:27.743Z,88.01
2018-12-10T08:27:56.627Z,87.40
2018-12-10T08:30:25.531Z,88.38
2018-12-10T08:32:54.557Z,87.91
2018-12-10T08:35:23.466Z,87.90
2018-12-10T08:37:52.474Z,88.34
2018-12-10T08:40:21.489Z,87.09
2018-12-10T08:42:50.747Z,87.62
2018-12-10T08:45:19.752Z,87.12
2018-12-10T08:47:48.698Z,86.93
2018-12-10T08:50:18.644Z,86.52
2018-12-10T08:52:47.645Z,86.97
2018-12-10T08:55:16.567Z,85.75
2018-12-10T08:57:45.469Z,84.53
2018-12-10T09:00:14.477Z,83.68
2018-12-10T09:02:43.378Z,84.49
2018-12-10T09:05:12.422Z,84.87
2018-12-10T09:07:41.328Z,85.43
2018-12-10T09:10:10.260Z,85.72
2018-12-10T09:12:46.801Z,86.37
2018-12-10T09:15:10.190Z,86.73
2018-12-10T09:17:39.147Z,86.31
2018-12-10T09:20:08.052Z,85.92
2018-12-10T09:22:36.978Z,86.05
2018-12-10T09:25:06.326Z,86.67
2018-12-10T09:27:35.250Z,85.75
2018-12-10T09:30:04.250Z,86.42
2018-12-10T09:32:34.267Z,85.38
2018-12-10T09:35:03.167Z,86.34
2018-12-10T09:37:32.181Z,86.49
2018-12-10T09:40:01.077Z,86.91
2018-12-10T09:42:30.025Z,86.71
2018-12-10T09:44:59.167Z,87.10
2018-12-10T09:47:28.105Z,87.32
2018-12-10T09:49:57.146Z,86.94
2018-12-10T09:52:26.101Z,86.42
2018-12-10T09:54:55.091Z,86.61
2018-12-10T09:57:24.817Z,86.03
2018-12-10T09:59:54.041Z,85.68
2018-12-10T10:02:22.966Z,84.39
2018-12-10T10:04:51.863Z,85.04
2018-12-10T10:07:28.226Z,85.04
2018-12-10T10:09:51.746Z,85.70
2018-12-10T10:12:20.715Z,85.16
2018-12-10T10:14:49.741Z,85.19
2018-12-10T10:17:18.702Z,85.63
2018-12-10T10:19:47.586Z,84.85
2018-12-10T10:22:16.563Z,83.50
2018-12-10T10:24:45.554Z,83.02
2018-12-10T10:27:16.520Z,84.13
2018-12-10T10:29:45.527Z,84.97
2018-12-10T10:32:14.560Z,85.41
2018-12-10T10:34:43.510Z,85.17
2018-12-10T10:37:12.493Z,85.59
2018-12-10T10:39:41.478Z,85.46
2018-12-10T10:42:12.447Z,85.72
2018-12-10T10:44:41.471Z,85.23
2018-12-10T10:47:10.371Z,84.77
2018-12-10T10:49:39.451Z,84.28
2018-12-10T10:52:08.482Z,84.07
2018-12-10T10:54:37.444Z,83.38
2018-12-10T10:57:06.498Z,83.57
2018-12-10T10:59:35.482Z,82.80
2018-12-10T11:02:09.825Z,82.77
2018-12-10T11:04:38.822Z,82.43
2018-12-10T11:07:08.162Z,82.20
2018-12-10T11:09:37.213Z,81.48
2018-12-10T11:12:06.136Z,81.35
2018-12-10T11:14:35.174Z,81.48
2018-12-10T11:17:04.384Z,80.97
2018-12-10T11:19:33.367Z,80.79
2018-12-10T11:22:02.281Z,81.45
2018-12-10T11:24:31.217Z,81.03
2018-12-10T11:27:00.175Z,80.19
2018-12-10T11:29:29.113Z,80.26
2018-12-10T11:31:58.044Z,79.00
2018-12-10T11:34:26.946Z,80.68
2018-12-10T11:36:55.899Z,80.61
2018-12-10T11:39:24.941Z,80.13
2018-12-10T11:41:53.867Z,79.97
2018-12-10T11:44:23.323Z,80.16
2018-12-10T11:46:52.252Z,79.75
2018-12-10T11:49:21.232Z,79.47
2018-12-10T11:51:50.220Z,79.67
2018-12-10T11:54:19.187Z,79.53
2018-12-10T11:56:48.431Z,80.00
2018-12-10T11:59:17.385Z,80.98
2018-12-10T12:01:46.449Z,80.35
2018-12-10T12:04:15.334Z,81.91
2018-12-10T12:06:46.250Z,82.01
2018-12-10T12:09:15.230Z,83.36
2018-12-10T12:11:44.208Z,85.24
2018-12-10T12:14:13.389Z,86.87
2018-12-10T12:16:42.283Z,87.46
2018-12-10T12:19:11.750Z,87.82
2018-12-10T12:21:41.511Z,87.94
2018-12-10T12:24:10.439Z,88.50
2018-12-10T12:26:39.322Z,89.09
2018-12-10T12:29:08.314Z,89.62
2018-12-10T12:31:37.344Z,90.91
2018-12-10T12:34:06.462Z,91.59
2018-12-10T12:36:35.391Z,91.79
2018-12-10T12:39:06.261Z,92.07
2018-12-10T12:41:36.252Z,92.27
2018-12-10T12:44:05.198Z,92.07
2018-12-10T12:46:34.234Z,92.06
2018-12-10T12:49:03.356Z,89.74
2018-12-10T12:51:32.266Z,90.24
2018-12-10T12:54:01.255Z,88.87
2018-12-10T12:56:30.133Z,87.27
2018-12-10T12:58:59.077Z,86.04
2018-12-10T13:01:28.786Z,85.23
2018-12-10T13:03:57.762Z,84.71
2018-12-10T13:06:26.668Z,83.60
2018-12-10T13:08:55.571Z,83.67
2018-12-10T13:11:24.503Z,84.75
2018-12-10T13:13:53.463Z,84.11
2018-12-10T13:16:22.425Z,85.25
2018-12-10T13:18:51.351Z,84.80
2018-12-10T13:21:20.295Z,85.65
2018-12-10T13:23:49.250Z,84.77
2018-12-10T13:26:18.146Z,85.64
2018-12-10T13:28:47.028Z,87.06
2018-12-10T13:31:15.959Z,88.44
2018-12-10T13:33:44.931Z,88.91
2018-12-10T13:36:13.831Z,89.36
2018-12-10T13:38:42.836Z,89.52
2018-12-10T13:41:11.766Z,90.51
2018-12-10T13:43:40.714Z,90.58
2018-12-10T13:46:09.622Z,91.05
2018-12-10T13:48:38.706Z,92.19
2018-12-10T13:51:07.700Z,93.36
2018-12-10T13:53:37.293Z,93.39
2018-12-10T13:56:06.161Z,93.81
2018-12-10T13:58:35.091Z,94.34
2018-12-10T14:01:04.106Z,94.87
2018-12-10T14:03:33.142Z,94.07
2018-12-10T14:06:02.034Z,94.39
2018-12-10T14:08:31.018Z,94.33
2018-12-10T14:10:59.923Z,93.91
2018-12-10T14:13:28.832Z,93.75
2018-12-10T14:15:57.753Z,93.63
2018-12-10T14:18:27.307Z,92.99
2018-12-10T14:20:56.213Z,92.97
2018-12-10T14:23:25.087Z,92.79
2018-12-10T14:25:54.030Z,92.11
2018-12-10T14:28:22.971Z,91.70
2018-12-10T14:30:52.078Z,91.89
2018-12-10T14:33:20.999Z,90.63
2018-12-10T14:35:50.054Z,91.19
2018-12-10T14:38:19.092Z,91.93
2018-12-10T14:40:48.461Z,91.91
2018-12-10T14:43:17.354Z,91.63
2018-12-10T14:45:46.258Z,91.38
2018-12-10T14:48:15.169Z,91.54
2018-12-10T14:50:44.123Z,91.45
2018-12-10T14:53:13.010Z,91.81
2018-12-10T14:55:41.959Z,91.37
2018-12-10T14:58:10.893Z,91.13
2018-12-10T15:00:40.021Z,90.43
2018-12-10T15:03:08.962Z,90.29
2018-12-10T15:05:37.916Z,90.42
2018-12-10T15:08:06.798Z,90.34
2018-12-10T15:10:35.672Z,90.64
2018-12-10T15:13:04.633Z,91.05
2018-12-10T15:15:33.525Z,91.07
2018-12-10T15:18:02.411Z,91.10
2018-12-10T15:20:31.294Z,90.74
2018-12-10T15:23:00.301Z,91.69
2018-12-10T15:25:29.246Z,91.67
2018-12-10T15:27:58.160Z,91.70
2018-12-10T15:30:27.150Z,91.96
2018-12-10T15:32:56.026Z,92.33
2018-12-10T15:35:24.962Z,92.42
2018-12-10T15:37:53.863Z,92.32
2018-12-10T15:40:22.753Z,91.68
2018-12-10T15:42:51.725Z,92.29
2018-12-10T15:45:20.738Z,92.46
2018-12-10T15:47:49.642Z,92.44
2018-12-10T15:50:18.584Z,91.66
2018-12-10T15:52:47.430Z,91.01
2018-12-10T15:55:16.411Z,91.10
2018-12-10T15:57:45.277Z,91.03
2018-12-10T16:00:14.163Z,91.17
2018-12-10T16:02:43.064Z,91.53
2018-12-10T16:05:11.934Z,90.55
2018-12-10T16:07:40.908Z,90.25
2018-12-10T16:10:10.963Z,90.20
2018-12-10T16:12:40.469Z,90.39
2018-12-10T16:15:09.345Z,89.35
2018-12-10T16:17:38.381Z,89.65
2018-12-10T16:20:09.586Z,89.37
2018-12-10T16:22:38.530Z,89.73
2018-12-10T16:25:07.477Z,89.52
2018-12-10T16:27:36.659Z,90.27
2018-12-10T16:30:07.238Z,89.87
2018-12-10T16:32:36.185Z,89.61
2018-12-10T16:35:05.907Z,89.01
2018-12-10T16:37:35.089Z,89.27
2018-12-10T16:40:04.779Z,89.54
2018-12-10T16:42:33.793Z,89.61
2018-12-10T16:45:02.773Z,89.31
2018-12-10T16:47:31.739Z,89.73
2018-12-10T16:50:01.483Z,89.14
2018-12-10T16:52:30.416Z,87.96
2018-12-10T16:54:59.375Z,87.72
2018-12-10T16:57:28.783Z,88.23
2018-12-10T16:59:57.777Z,87.77
2018-12-10T17:02:26.929Z,87.95
2018-12-10T17:04:57.158Z,87.41
2018-12-10T17:07:26.186Z,87.68
2018-12-10T17:09:55.290Z,88.39
2018-12-10T17:12:25.007Z,88.87
2018-12-10T17:14:54.762Z,88.69
2018-12-10T17:17:23.717Z,88.81
2018-12-10T17:19:52.782Z,89.31
2018-12-10T17:22:21.672Z,89.01
2018-12-10T17:24:50.595Z,88.87
2018-12-10T17:27:19.558Z,89.47
2018-12-10T17:29:48.511Z,88.59
2018-12-10T17:32:17.446Z,87.11
2018-12-10T17:34:46.315Z,87.51
2018-12-10T17:37:15.263Z,87.16
2018-12-10T17:39:44.209Z,86.78
2018-12-10T17:42:13.232Z,87.32
2018-12-10T17:44:43.320Z,86.93
2018-12-10T17:47:12.272Z,86.67
2018-12-10T17:49:41.466Z,85.96
2018-12-10T17:52:10.459Z,84.72
2018-12-10T17:54:39.378Z,85.20
2018-12-10T17:57:08.341Z,84.22
2018-12-10T17:59:37.257Z,84.62
2018-12-10T18:02:07.282Z,84.62
2018-12-10T18:04:37.152Z,84.49
2018-12-10T18:07:06.031Z,84.42
2018-12-10T18:09:35.105Z,84.68
2018-12-10T18:12:04.232Z,85.22
2018-12-10T18:14:33.221Z,84.58
2018-12-10T18:17:02.157Z,84.47
2018-12-10T18:19:31.042Z,83.86
2018-12-10T18:22:01.194Z,84.98
2018-12-10T18:24:30.077Z,84.60
2018-12-10T18:26:59.011Z,84.69
2018-12-10T18:29:28.035Z,85.56
2018-12-10T18:31:56.971Z,84.85
2018-12-10T18:34:25.940Z,84.76
2018-12-10T18:36:55.027Z,84.43
2018-12-10T18:39:24.049Z,83.79
2018-12-10T18:41:53.055Z,84.60
2018-12-10T18:44:22.022Z,84.09
2018-12-10T18:46:50.902Z,84.41
2018-12-10T18:49:19.915Z,83.68
2018-12-10T18:51:48.823Z,84.42
2018-12-10T18:54:18.612Z,84.37
2018-12-10T18:56:47.610Z,84.63
2018-12-10T18:59:16.543Z,84.39
2018-12-10T19:01:45.591Z,85.21
2018-12-10T19:04:15.747Z,85.08
2018-12-10T19:06:44.607Z,85.35
2018-12-10T19:09:13.782Z,85.87
2018-12-10T19:11:42.775Z,86.48
2018-12-10T19:14:11.763Z,86.78
2018-12-10T19:16:40.705Z,86.87
2018-12-10T19:19:09.649Z,87.11
2018-12-10T19:21:38.731Z,87.24
2018-12-10T19:24:07.911Z,86.76
2018-12-10T19:26:37.163Z,87.44
2018-12-10T19:29:06.222Z,87.24
2018-12-10T19:31:35.537Z,87.17
2018-12-10T19:34:04.588Z,86.92
2018-12-10T19:36:33.483Z,87.05
2018-12-10T19:39:02.904Z,86.78
2018-12-10T19:41:32.843Z,86.99
2018-12-10T19:44:01.782Z,86.91
2018-12-10T19:46:30.697Z,87.31
2018-12-10T19:48:59.718Z,86.88
2018-12-10T19:51:28.917Z,86.50
2018-12-10T19:53:57.910Z,87.27
2018-12-10T19:56:26.902Z,86.59
2018-12-10T19:58:56.253Z,86.57
2018-12-10T20:01:25.318Z,86.27
2018-12-10T20:03:54.272Z,86.60
2018-12-10T20:06:28.672Z,86.50
2018-12-10T20:08:57.612Z,86.66
2018-12-10T20:11:28.131Z,86.37
2018-12-10T20:13:57.003Z,87.59
2018-12-10T20:16:25.918Z,88.83
2018-12-10T20:18:54.951Z,88.67
2018-12-10T20:21:24.007Z,89.87
2018-12-10T20:23:53.014Z,89.41
2018-12-10T20:26:22.081Z,89.37
2018-12-10T20:28:51.001Z,89.42
2018-12-10T20:31:19.980Z,90.81
2018-12-10T20:33:49.705Z,92.13
2018-12-10T20:36:18.642Z,93.07
2018-12-10T20:38:47.570Z,93.88
2018-12-10T20:41:16.533Z,94.50
2018-12-10T20:43:45.485Z,95.34
2018-12-10T20:46:14.424Z,96.09
2018-12-10T20:48:43.310Z,99.16
2018-12-10T20:51:12.242Z,99.86
2018-12-10T20:53:41.286Z,100.00
2018-12-10T20:56:10.250Z,100.00
2018-12-10T20:58:39.210Z,100.00
2018-12-10T21:01:08.171Z,100.00
2018-12-10T21:03:37.225Z,100.00
2018-12-10T21:06:11.502Z,100.00
2018-12-10T21:08:40.687Z,100.00
2018-12-10T21:11:09.702Z,100.00
2018-12-10T21:13:38.731Z,100.00
2018-12-10T21:16:07.651Z,100.00
2018-12-10T21:18:37.742Z,100.00
2018-12-10T21:21:06.662Z,100.00
2018-12-10T21:23:35.823Z,100.00
2018-12-10T21:26:05.766Z,100.00
2018-12-10T21:28:33.749Z,100.00
2018-12-10T21:31:02.695Z,100.00
2018-12-10T21:33:31.653Z,100.00
2018-12-10T21:36:00.599Z,100.00
2018-12-10T21:38:29.567Z,100.00
2018-12-10T21:40:58.589Z,100.00
2018-12-10T21:43:27.598Z,100.00
2018-12-10T21:45:56.498Z,100.00
2018-12-10T21:48:26.166Z,100.00
2018-12-10T21:50:55.071Z,100.00
2018-12-10T21:53:24.011Z,100.00
2018-12-10T21:55:52.976Z,100.00
2018-12-10T21:58:22.011Z,100.00
2018-12-10T22:00:50.944Z,100.00
2018-12-10T22:03:19.964Z,100.00
2018-12-10T22:05:48.954Z,100.00
2018-12-10T22:08:17.922Z,100.00
2018-12-10T22:10:47.048Z,100.00
2018-12-10T22:13:15.918Z,100.00
2018-12-10T22:15:44.912Z,100.00
2018-12-10T22:18:13.797Z,100.00
2018-12-10T22:20:42.725Z,100.00
2018-12-10T22:23:11.697Z,100.00
2018-12-10T22:25:40.669Z,100.00
2018-12-10T22:30:44.024Z,100.00
2018-12-10T22:33:13.015Z,100.00
2018-12-10T22:35:41.930Z,100.00
2018-12-10T22:38:10.882Z,100.00
2018-12-10T22:40:40.534Z,100.00
2018-12-10T22:43:09.491Z,100.00
2018-12-10T22:45:38.442Z,100.00
2018-12-10T22:48:07.383Z,100.00
2018-12-10T22:50:36.315Z,100.00
2018-12-10T22:53:05.665Z,99.63
2018-12-10T22:55:34.631Z,99.07
2018-12-10T22:58:03.638Z,97.05
2018-12-10T23:00:37.989Z,96.35
2018-12-10T23:03:09.011Z,96.27
2018-12-10T23:05:38.002Z,96.46
2018-12-10T23:08:08.914Z,96.44
2018-12-10T23:10:37.891Z,95.83
2018-12-10T23:13:07.431Z,96.35
2018-12-10T23:15:36.404Z,96.12
2018-12-10T23:18:05.398Z,96.32
2018-12-10T23:20:34.319Z,96.02
2018-12-10T23:23:03.270Z,95.43
2018-12-10T23:25:32.294Z,95.03
2018-12-10T23:28:01.351Z,95.77
2018-12-10T23:30:30.301Z,94.80
2018-12-10T23:32:59.208Z,94.69
2018-12-10T23:35:28.187Z,95.62
2018-12-10T23:37:57.155Z,95.88
2018-12-10T23:40:26.154Z,95.28
2018-12-10T23:43:00.364Z,95.24
2018-12-10T23:45:29.466Z,94.24
2018-12-10T23:47:58.427Z,94.33
2018-12-10T23:50:27.421Z,94.55
2018-12-10T23:52:56.365Z,94.58
2018-12-10T23:55:25.288Z,94.19
2018-12-10T23:57:54.201Z,93.35
